Orford, New Hampshire
Current Conditions -  °F | °C
As of 8:53 PM on Friday 24 Oct 2014 (Local Time) from KLEB Reporting Station
Overcast Overcast  
Wind Chill: 45°   Ceiling: 1700
Heat Index: 48°   Visibility: 10mi
Dew Point: 40°   Wind: 7mph
Humidity: 74%   Direction: 340°NNW
Pressure: 29.79"   Gusts: NA
Location:  43.91°N, 72.14°W
Report Text: KLEB 250053Z 34006KT 10SM OVC017 09/04 A2979 RMK AO2 SLP088 T00890044
Loading
Personal Weather Stations






























Interactive Weather Map
Tropical Storm Tracking
New forecast layout! Learn more

10-Day Weather Forecast

Advertisements
Track Severe Weather on mobile